Time;durP1;ratioP1;P1;durP2;ratioP2;P2;SDS_P1;SDS_P2;PMS_P1;PMS_P2;Temp;Humidity;BMP_temperature;BMP_pressure;BME280_temperature;BME280_humidity;BME280_pressure;Samples;Min_cycle;Max_cycle;Signal;HPM_P1;HPM_P2
2023/03/27 00:01:10;;;;;;;2.40;2.20;;;;;;;6.16;100.00;98563.50;10460606;28;20045;-69
2023/03/27 00:06:16;;;;;;;3.13;2.05;;;;;;;6.31;100.00;98562.91;10463131;28;20116;-69
2023/03/27 00:11:20;;;;;;;2.10;1.90;;;;;;;6.35;100.00;98574.94;10460423;28;20045;-70
2023/03/27 00:16:25;;;;;;;2.08;1.90;;;;;;;6.21;100.00;98572.00;10461137;28;20041;-69
2023/03/27 00:21:27;;;;;;;2.50;2.30;;;;;;;6.24;100.00;98564.91;10460773;28;20484;-69
2023/03/27 00:26:29;;;;;;;5.30;3.17;;;;;;;6.33;100.00;98566.34;10462278;28;20045;-69
2023/03/27 00:31:31;;;;;;;3.97;3.67;;;;;;;6.18;100.00;98566.91;10441904;28;20059;-70
2023/03/27 00:36:33;;;;;;;3.83;3.42;;;;;;;6.15;100.00;98570.47;10459411;28;20045;-68
2023/03/27 00:41:34;;;;;;;4.22;3.50;;;;;;;6.03;100.00;98581.38;10441422;28;20053;-70
2023/03/27 00:46:43;;;;;;;5.35;3.97;;;;;;;5.99;100.00;98572.78;10441529;28;20099;-70
2023/03/27 00:51:46;;;;;;;3.83;3.53;;;;;;;6.03;100.00;98600.47;10459873;28;20064;-70
2023/03/27 00:56:48;;;;;;;10.07;4.82;;;;;;;5.45;100.00;98623.34;10440804;28;20045;-69
2023/03/27 01:01:51;;;;;;;10.48;3.47;;;;;;;4.89;100.00;98625.16;10440346;28;20056;-69
2023/03/27 01:06:54;;;;;;;8.48;4.32;;;;;;;4.68;100.00;98647.50;10440522;28;20041;-70
2023/03/27 01:12:16;;;;;;;12.73;3.90;;;;;;;4.51;100.00;98668.81;10426954;28;20060;-69
2023/03/27 01:17:43;;;;;;;12.85;3.53;;;;;;;4.11;100.00;98697.69;10438864;28;20052;-70
2023/03/27 01:22:57;;;;;;;9.40;3.38;;;;;;;3.68;100.00;98698.81;10439739;28;20053;-70
2023/03/27 01:28:30;;;;;;;12.32;3.08;;;;;;;3.61;100.00;98707.66;10439465;28;20053;-70
2023/03/27 01:33:52;;;;;;;10.02;2.97;;;;;;;3.46;100.00;98730.53;10440252;28;20049;-69
2023/03/27 01:39:21;;;;;;;10.95;2.83;;;;;;;2.99;100.00;98753.22;10439224;28;20060;-70
2023/03/27 01:44:29;;;;;;;5.88;2.45;;;;;;;2.92;100.00;98768.97;10439328;28;20049;-69
2023/03/27 01:49:54;;;;;;;8.23;2.17;;;;;;;2.50;100.00;98771.56;10439747;28;20475;-69
2023/03/27 01:55:02;;;;;;;8.10;2.28;;;;;;;2.48;100.00;98794.09;10440632;28;20107;-69
2023/03/27 02:00:16;;;;;;;7.60;2.60;;;;;;;2.41;100.00;98802.84;10438743;28;20137;-69
2023/03/27 02:05:29;;;;;;;10.90;2.50;;;;;;;2.31;100.00;98811.69;10456864;28;20056;-69
2023/03/27 02:10:38;;;;;;;12.45;2.75;;;;;;;2.36;100.00;98823.69;10438415;28;20090;-69
2023/03/27 02:15:49;;;;;;;8.32;3.17;;;;;;;2.43;100.00;98829.59;10439801;28;20136;-69
2023/03/27 02:20:51;;;;;;;9.80;2.72;;;;;;;2.47;100.00;98834.69;10437911;28;20041;-69
2023/03/27 02:25:53;;;;;;;7.32;2.92;;;;;;;2.44;100.00;98842.56;10441318;28;20106;-69
2023/03/27 02:31:18;;;;;;;8.75;2.55;;;;;;;2.48;100.00;98848.56;10464166;28;20041;-69
2023/03/27 02:36:56;;;;;;;7.97;2.17;;;;;;;2.51;100.00;98867.47;10450409;28;20033;-69
2023/03/27 02:42:40;;;;;;;7.10;2.58;;;;;;;2.46;100.00;98879.69;10445847;28;20059;-69
2023/03/27 02:47:50;;;;;;;11.50;3.00;;;;;;;2.50;100.00;98903.84;10445757;28;20041;-69
2023/03/27 02:52:57;;;;;;;8.73;2.33;;;;;;;2.43;100.00;98903.06;10445767;28;20045;-70
2023/03/27 02:58:04;;;;;;;6.70;2.33;;;;;;;2.51;100.00;98924.56;10465289;28;20064;-69
2023/03/27 03:03:27;;;;;;;9.65;2.50;;;;;;;2.61;100.00;98932.16;10445352;28;20106;-70
2023/03/27 03:08:39;;;;;;;9.77;2.83;;;;;;;2.69;100.00;98936.34;10446342;28;20103;-69
2023/03/27 03:13:44;;;;;;;10.20;3.33;;;;;;;2.64;100.00;98950.28;10444852;28;20503;-69
2023/03/27 03:18:46;;;;;;;6.05;2.70;;;;;;;2.47;100.00;98968.72;10444387;28;20513;-69
2023/03/27 03:23:48;;;;;;;9.35;3.25;;;;;;;2.52;100.00;98977.28;10463982;28;20045;-69
2023/03/27 03:29:00;;;;;;;9.88;3.10;;;;;;;2.36;100.00;98975.84;10462664;28;20041;-69
2023/03/27 03:34:17;;;;;;;6.97;3.00;;;;;;;2.41;100.00;98997.38;10443906;28;20148;-69
2023/03/27 03:39:21;;;;;;;12.07;3.95;;;;;;;2.45;100.00;99012.00;10442778;28;20141;-69
2023/03/27 03:44:23;;;;;;;13.43;4.75;;;;;;;2.44;100.00;99016.34;10444475;28;20045;-69
2023/03/27 03:49:26;;;;;;;10.45;2.72;;;;;;;2.40;100.00;99037.16;10443279;28;20068;-69
2023/03/27 03:54:28;;;;;;;5.70;2.42;;;;;;;2.57;100.00;99039.47;10443280;28;20146;-69
2023/03/27 03:59:30;;;;;;;8.45;2.17;;;;;;;2.66;100.00;99052.34;10443050;28;20044;-69
2023/03/27 04:05:10;;;;;;;7.88;2.25;;;;;;;2.66;100.00;99065.31;10377453;28;20057;-69
2023/03/27 04:10:13;;;;;;;7.18;1.85;;;;;;;2.68;100.00;99085.13;10374685;28;20061;-69
2023/03/27 04:15:15;;;;;;;5.97;1.73;;;;;;;2.75;100.00;99098.91;10374272;28;20455;-69
2023/03/27 04:20:40;;;;;;;4.07;2.00;;;;;;;2.72;100.00;99104.13;10465998;22;20458;-73
2023/03/27 04:25:45;;;;;;;7.93;2.35;;;;;;;2.75;100.00;99106.69;10460972;28;20522;-73
2023/03/27 04:30:53;;;;;;;5.30;2.28;;;;;;;2.81;100.00;99110.91;10444773;28;20509;-72
2023/03/27 04:36:13;;;;;;;6.75;2.40;;;;;;;2.81;100.00;99116.97;10461425;28;20049;-73
2023/03/27 04:41:28;;;;;;;6.25;2.47;;;;;;;2.72;100.00;99119.69;10444547;28;20049;-73
2023/03/27 04:46:30;;;;;;;8.30;2.50;;;;;;;2.67;100.00;99140.53;10459984;28;20064;-73
2023/03/27 04:51:40;;;;;;;7.20;2.20;;;;;;;2.70;100.00;99147.38;10459738;28;20041;-73
2023/03/27 04:56:45;;;;;;;8.35;2.00;;;;;;;2.67;100.00;99163.88;10459391;28;20120;-74
2023/03/27 05:01:49;;;;;;;4.40;1.80;;;;;;;2.77;100.00;99182.75;10459839;28;20063;-74
2023/03/27 05:07:04;;;;;;;6.25;2.28;;;;;;;2.71;100.00;99194.09;10459391;28;20136;-73
2023/03/27 05:12:06;;;;;;;3.97;1.50;;;;;;;2.71;100.00;99196.69;10443493;28;20048;-73
2023/03/27 05:17:16;;;;;;;6.53;1.88;;;;;;;2.73;100.00;99205.28;10458793;28;20049;-75
2023/03/27 05:22:20;;;;;;;5.78;2.38;;;;;;;2.58;100.00;99222.81;10457698;28;20103;-75
2023/03/27 05:27:34;;;;;;;5.85;2.25;;;;;;;2.59;100.00;99233.16;10458030;28;20068;-73
2023/03/27 05:32:37;;;;;;;4.35;2.53;;;;;;;2.58;100.00;99239.22;10457087;28;20071;-74
2023/03/27 05:38:00;;;;;;;5.43;2.10;;;;;;;2.57;100.00;99242.72;10458051;28;20049;-73
2023/03/27 05:43:25;;;;;;;6.10;2.30;;;;;;;2.49;100.00;99258.34;10454581;28;20053;-74
2023/03/27 05:48:27;;;;;;;5.63;2.03;;;;;;;2.65;100.00;99253.81;10457562;28;20044;-74
2023/03/27 05:53:38;;;;;;;4.13;2.00;;;;;;;2.57;100.00;99253.09;10441538;28;20485;-73
2023/03/27 05:58:52;;;;;;;7.75;3.40;;;;;;;2.47;100.00;99274.81;10457326;28;20041;-74
2023/03/27 06:03:58;;;;;;;4.82;2.00;;;;;;;2.65;100.00;99284.13;10440719;28;20084;-75
2023/03/27 06:09:36;;;;;;;4.32;2.42;;;;;;;2.61;100.00;99292.81;10451345;28;20047;-72
2023/03/27 06:14:58;;;;;;;6.18;2.28;;;;;;;2.67;100.00;99308.31;10457567;28;20442;-74
2023/03/27 06:20:11;;;;;;;3.75;2.00;;;;;;;2.57;100.00;99325.75;10456789;28;20045;-75
2023/03/27 06:25:19;;;;;;;2.70;1.90;;;;;;;2.52;100.00;99327.50;10456254;28;20072;-73
2023/03/27 06:30:23;;;;;;;2.35;1.60;;;;;;;2.53;98.92;99342.22;10439874;28;20037;-74
2023/03/27 06:35:54;;;;;;;4.20;2.20;;;;;;;2.46;99.52;99346.59;10449357;28;20422;-74
2023/03/27 06:41:03;;;;;;;5.85;2.10;;;;;;;2.66;97.20;99348.13;10455747;28;20136;-73
2023/03/27 06:46:24;;;;;;;5.50;2.00;;;;;;;2.81;97.33;99366.13;10457578;28;20052;-73
2023/03/27 06:51:51;;;;;;;4.05;1.70;;;;;;;2.84;95.04;99375.63;10456459;28;20052;-73
2023/03/27 06:56:55;;;;;;;4.60;1.52;;;;;;;2.85;92.34;99385.13;10439794;28;20136;-73
2023/03/27 07:01:57;;;;;;;5.95;1.50;;;;;;;2.68;88.07;99395.66;10458213;28;20103;-73
2023/03/27 07:07:08;;;;;;;2.67;1.20;;;;;;;2.34;86.92;99397.72;10457633;28;20047;-73
2023/03/27 07:12:14;;;;;;;2.35;1.20;;;;;;;2.48;84.85;99401.91;10457895;28;20056;-73
2023/03/27 07:17:19;;;;;;;2.05;1.20;;;;;;;2.42;88.58;99416.66;10463221;28;20037;-72
2023/03/27 07:22:26;;;;;;;2.80;1.50;;;;;;;2.57;87.68;99420.84;10462797;28;20048;-74
2023/03/27 07:27:30;;;;;;;;;;;;;;;2.68;87.36;99424.22;10463593;28;20037;-73
2023/03/27 07:32:36;;;;;;;2.85;1.20;;;;;;;2.48;79.75;99442.56;10462309;28;19925;-73
2023/03/27 07:37:41;;;;;;;1.33;1.08;;;;;;;2.56;80.55;99445.06;10447112;28;20574;-74
2023/03/27 07:43:05;;;;;;;2.33;1.20;;;;;;;2.80;77.57;99459.59;10463179;28;20048;-74
2023/03/27 07:48:16;;;;;;;4.57;1.98;;;;;;;2.47;77.92;99467.63;10462192;28;20124;-74
2023/03/27 07:53:19;;;;;;;2.78;1.10;;;;;;;2.65;76.74;99470.94;10462102;28;20520;-73
2023/03/27 07:58:44;;;;;;;3.35;1.20;;;;;;;2.88;77.52;99471.59;10462275;28;20094;-75
2023/03/27 08:03:51;;;;;;;1.98;0.98;;;;;;;3.03;75.90;99476.63;10461437;28;20049;-74
2023/03/27 08:08:55;;;;;;;2.20;1.00;;;;;;;3.13;73.43;99484.34;10461975;28;20048;-74
2023/03/27 08:14:00;;;;;;;1.23;0.93;;;;;;;3.08;72.83;99492.16;10461194;28;20540;-74
2023/03/27 08:19:05;;;;;;;5.00;1.00;;;;;;;3.16;72.40;99494.69;10460571;28;20128;-73
2023/03/27 08:24:11;;;;;;;2.05;0.90;;;;;;;3.49;70.16;99498.66;10460003;28;20167;-75
2023/03/27 08:29:43;;;;;;;1.40;0.90;;;;;;;3.88;66.72;99507.69;10455186;28;20050;-74
2023/03/27 08:34:46;;;;;;;1.27;1.10;;;;;;;3.80;65.10;99510.38;10460098;28;20521;-73
2023/03/27 08:39:57;;;;;;;;;;;;;;;3.23;70.10;99530.09;10459971;28;20414;-73
2023/03/27 08:45:17;;;;;;;1.52;0.93;;;;;;;2.93;74.10;99528.69;10459329;28;19974;-74
2023/03/27 08:50:32;;;;;;;2.08;1.17;;;;;;;3.39;74.24;99543.81;10442300;28;20045;-74
2023/03/27 08:55:55;;;;;;;2.08;0.90;;;;;;;3.63;70.21;99532.25;10433363;28;20052;-74
2023/03/27 09:01:37;;;;;;;1.70;0.73;;;;;;;3.69;69.22;99534.81;10460175;28;20037;-74
2023/03/27 09:06:49;;;;;;;1.30;0.80;;;;;;;3.97;68.93;99536.16;10458502;28;20102;-73
2023/03/27 09:12:36;;;;;;;1.77;1.08;;;;;;;3.80;65.06;99527.72;10417177;28;20107;-75
2023/03/27 09:17:45;;;;;;;2.67;1.27;;;;;;;3.93;65.62;99539.69;10416765;28;20100;-74
2023/03/27 09:23:17;;;;;;;2.20;0.93;;;;;;;3.60;68.24;99550.50;10417263;28;20503;-74
2023/03/27 09:29:04;;;;;;;2.53;0.80;;;;;;;4.16;64.48;99544.63;10418716;28;20400;-74
2023/03/27 09:34:16;;;;;;;1.52;0.70;;;;;;;4.61;60.15;99557.00;10395330;28;20046;-73
2023/03/27 09:39:26;;;;;;;1.35;0.77;;;;;;;5.09;59.07;99557.94;10416463;28;20041;-74
2023/03/27 09:44:44;;;;;;;1.55;0.52;;;;;;;5.64;57.13;99580.38;10416312;28;20050;-73
2023/03/27 09:49:55;;;;;;;2.60;0.75;;;;;;;5.61;54.81;99590.00;10400374;28;20049;-73
2023/03/27 09:55:29;;;;;;;2.47;1.02;;;;;;;5.22;57.19;99588.09;10402207;28;20069;-75
2023/03/27 10:00:39;;;;;;;2.45;1.02;;;;;;;5.05;66.14;99585.78;10416491;28;20046;-75
2023/03/27 10:05:42;;;;;;;1.83;1.10;;;;;;;5.46;61.01;99584.19;10400119;28;20051;-74
2023/03/27 10:10:53;;;;;;;3.92;0.90;;;;;;;6.06;58.50;99594.38;10415776;28;20470;-74
2023/03/27 10:16:20;;;;;;;2.10;0.90;;;;;;;5.82;51.74;99572.19;10415902;28;20084;-75
2023/03/27 10:21:37;;;;;;;3.42;1.23;;;;;;;6.62;52.50;99582.72;10428655;22;20127;-74
2023/03/27 10:26:40;;;;;;;3.28;0.95;;;;;;;7.19;50.33;99597.91;10430235;28;20096;-74
2023/03/27 10:31:49;;;;;;;3.75;1.20;;;;;;;6.66;53.59;99597.44;10414259;28;20041;-74
2023/03/27 10:37:28;;;;;;;2.90;1.20;;;;;;;5.93;54.63;99603.34;10413695;28;20056;-74
2023/03/27 10:43:03;;;;;;;2.83;0.90;;;;;;;6.32;49.71;99608.63;10413354;28;20045;-75
2023/03/27 10:48:06;;;;;;;4.55;0.95;;;;;;;6.41;48.94;99618.84;10418195;28;20080;-73
2023/03/27 10:53:19;;;;;;;3.80;0.85;;;;;;;5.86;49.55;99640.81;10437715;28;20037;-73
2023/03/27 10:58:50;;;;;;;1.95;0.82;;;;;;;5.40;52.11;99633.84;10421618;28;20136;-74
2023/03/27 11:04:38;;;;;;;1.88;0.98;;;;;;;6.49;54.44;99637.84;10421407;28;20051;-74
2023/03/27 11:09:55;;;;;;;1.75;0.70;;;;;;;6.01;50.24;99644.91;10422190;28;20141;-73
2023/03/27 11:15:13;;;;;;;3.53;0.80;;;;;;;6.17;51.21;99642.88;10421711;28;20049;-74
2023/03/27 11:20:31;;;;;;;3.53;1.33;;;;;;;6.86;51.34;99642.22;10420873;28;20491;-73
2023/03/27 11:25:50;;;;;;;2.15;1.00;;;;;;;7.80;52.51;99653.88;10420068;28;20079;-73
2023/03/27 11:31:03;;;;;;;3.88;1.67;;;;;;;6.94;49.81;99648.13;10419530;28;20046;-72
2023/03/27 11:36:31;;;;;;;4.57;1.48;;;;;;;6.25;51.32;99643.59;10419743;28;20049;-73
2023/03/27 11:41:52;;;;;;;2.17;0.77;;;;;;;5.76;50.61;99662.75;10436590;28;20052;-74
2023/03/27 11:47:15;;;;;;;2.28;0.80;;;;;;;6.58;48.04;99674.19;10420381;28;20069;-73
2023/03/27 11:52:25;;;;;;;2.97;0.90;;;;;;;6.40;51.23;99674.59;10435319;28;20069;-74
2023/03/27 11:57:27;;;;;;;2.33;0.70;;;;;;;5.99;49.18;99688.44;10419404;28;20125;-73
2023/03/27 12:03:00;;;;;;;1.98;1.00;;;;;;;6.27;48.05;99684.41;10405263;28;20140;-73
2023/03/27 12:08:23;;;;;;;3.70;1.42;;;;;;;6.41;49.07;99668.47;10418150;28;20049;-73
2023/03/27 12:13:47;;;;;;;3.42;0.88;;;;;;;6.67;47.29;99670.53;10435382;28;20077;-73
2023/03/27 12:19:24;;;;;;;2.65;0.70;;;;;;;6.50;46.68;99672.63;10421179;28;20091;-73
2023/03/27 12:25:25;;;;;;;3.95;0.90;;;;;;;6.35;49.17;99679.03;10418639;28;20096;-73
2023/03/27 12:30:32;;;;;;;3.05;0.60;;;;;;;6.88;49.24;99690.09;10417544;28;20088;-73
2023/03/27 12:35:41;;;;;;;2.85;0.95;;;;;;;6.23;48.49;99681.88;10417802;28;20538;-73
2023/03/27 12:40:50;;;;;;;2.25;0.80;;;;;;;6.15;49.56;99682.03;10402269;28;20095;-74
2023/03/27 12:46:11;;;;;;;2.67;0.90;;;;;;;6.50;48.78;99667.41;10435380;28;20053;-74
2023/03/27 12:51:18;;;;;;;3.15;0.75;;;;;;;6.46;48.09;99699.69;10417914;28;20120;-73
2023/03/27 12:56:30;;;;;;;1.85;0.68;;;;;;;6.78;47.01;99680.75;10416594;28;20056;-74
2023/03/27 13:01:42;;;;;;;2.20;0.90;;;;;;;6.70;45.91;99672.22;10415955;28;20053;-73
2023/03/27 13:07:28;;;;;;;2.95;0.60;;;;;;;6.92;42.68;99685.66;10418326;28;20099;-73
2023/03/27 13:12:50;;;;;;;3.70;0.88;;;;;;;6.32;43.78;99695.59;10431426;28;20529;-73
2023/03/27 13:18:31;;;;;;;2.60;0.70;;;;;;;5.60;48.46;99729.09;10431893;28;20049;-72
2023/03/27 13:23:39;;;;;;;3.35;0.80;;;;;;;5.26;55.38;99724.41;10386523;28;20069;-74
2023/03/27 13:28:53;;;;;;;2.20;0.82;;;;;;;5.38;54.27;99719.00;10417313;28;20067;-73
2023/03/27 13:34:15;;;;;;;2.25;0.70;;;;;;;5.54;50.97;99730.06;10416133;28;20041;-73
2023/03/27 13:39:23;;;;;;;3.47;1.13;;;;;;;5.77;56.30;99727.06;10414763;28;20076;-73
2023/03/27 13:45:03;;;;;;;2.97;0.98;;;;;;;5.81;55.79;99721.78;10414775;28;20156;-74
2023/03/27 13:50:28;;;;;;;1.87;1.03;;;;;;;6.00;54.42;99724.94;10378439;28;20042;-74
2023/03/27 13:55:46;;;;;;;2.53;0.95;;;;;;;5.44;57.56;99768.41;10430808;28;20052;-72
2023/03/27 14:01:21;;;;;;;3.30;0.80;;;;;;;4.45;67.22;99747.19;10404642;28;20072;-73
2023/03/27 14:06:35;;;;;;;1.13;0.73;;;;;;;4.18;72.01;99770.91;10430435;28;20049;-74
2023/03/27 14:11:56;;;;;;;1.75;0.75;;;;;;;3.32;77.18;99786.31;10415086;28;20045;-74
2023/03/27 14:17:27;;;;;;;3.67;1.15;;;;;;;3.06;80.76;99753.59;10416242;28;20091;-75
2023/03/27 14:22:46;;;;;;;2.30;0.88;;;;;;;3.26;80.01;99761.25;10434512;28;20072;-74
2023/03/27 14:27:54;;;;;;;3.53;1.20;;;;;;;3.45;78.22;99787.97;10423660;28;20049;-74
2023/03/27 14:33:07;;;;;;;2.67;1.05;;;;;;;3.31;82.66;99793.25;10423264;28;20045;-74
2023/03/27 14:38:30;;;;;;;3.38;1.17;;;;;;;3.07;87.15;99794.28;10421867;28;20128;-74
2023/03/27 14:43:33;;;;;;;5.32;1.08;;;;;;;3.09;90.51;99813.28;10422106;28;20072;-74
2023/03/27 14:48:39;;;;;;;1.92;0.85;;;;;;;2.88;91.56;99816.88;10422274;28;20045;-73
2023/03/27 14:53:44;;;;;;;2.40;1.20;;;;;;;2.93;93.83;99814.25;10421713;28;20060;-74
2023/03/27 14:58:54;;;;;;;2.72;1.33;;;;;;;3.17;90.61;99814.13;10420920;28;20506;-74
2023/03/27 15:04:01;;;;;;;1.95;1.02;;;;;;;3.27;90.91;99820.97;10438107;28;20439;-74
2023/03/27 15:09:13;;;;;;;1.98;1.15;;;;;;;3.22;89.74;99819.28;10420717;28;20050;-74
2023/03/27 15:14:34;;;;;;;1.95;0.90;;;;;;;3.27;88.43;99843.50;10422177;28;20045;-74
2023/03/27 15:19:47;;;;;;;0.90;0.65;;;;;;;3.49;87.29;99836.44;10437279;28;20602;-74
2023/03/27 15:25:01;;;;;;;8.25;1.00;;;;;;;3.36;87.59;99840.84;10419892;28;20414;-73
2023/03/27 15:30:27;;;;;;;1.38;0.80;;;;;;;3.38;86.41;99836.53;10437207;28;20042;-73
2023/03/27 15:35:40;;;;;;;1.25;0.70;;;;;;;3.29;85.75;99836.59;10420307;28;20088;-74
2023/03/27 15:40:45;;;;;;;1.08;0.63;;;;;;;3.43;83.31;99832.16;10426525;28;20508;-74
2023/03/27 15:46:06;;;;;;;3.72;1.42;;;;;;;3.59;80.23;99834.69;10426947;28;20099;-75
2023/03/27 15:51:09;;;;;;;1.95;0.85;;;;;;;3.61;77.99;99840.72;10421372;28;20041;-75
2023/03/27 15:56:26;;;;;;;3.03;1.05;;;;;;;3.87;78.46;99850.94;10420324;28;20049;-74
2023/03/27 16:01:34;;;;;;;2.10;0.80;;;;;;;3.97;74.62;99861.25;10408854;28;20491;-74
2023/03/27 16:06:39;;;;;;;1.35;0.75;;;;;;;3.69;74.70;99872.72;10378533;28;20054;-73
2023/03/27 16:11:45;;;;;;;1.33;1.00;;;;;;;3.37;75.47;99870.31;10378736;28;20034;-73
2023/03/27 16:16:48;;;;;;;5.60;1.48;;;;;;;3.36;78.78;99871.16;10398508;28;20048;-74
2023/03/27 16:21:55;;;;;;;2.20;0.90;;;;;;;3.41;78.33;99867.69;10434476;22;20101;-75
2023/03/27 16:26:57;;;;;;;2.50;1.50;;;;;;;3.39;79.04;99878.97;10421477;28;20048;-76
2023/03/27 16:31:58;;;;;;;2.40;1.67;;;;;;;3.33;79.72;99879.00;10426970;28;20037;-75
2023/03/27 16:37:00;;;;;;;3.42;1.58;;;;;;;3.32;79.16;99880.75;10461765;28;20444;-75
2023/03/27 16:42:02;;;;;;;2.38;1.30;;;;;;;3.44;77.68;99893.66;10464002;28;20052;-76
2023/03/27 16:47:04;;;;;;;2.40;1.80;;;;;;;3.57;76.81;99897.06;10461845;28;20049;-75
2023/03/27 16:52:06;;;;;;;2.45;1.23;;;;;;;3.50;77.71;99897.97;10461516;28;20489;-75
2023/03/27 16:57:09;;;;;;;6.70;5.20;;;;;;;3.23;80.20;99904.13;10460090;28;20052;-74
2023/03/27 17:02:12;;;;;;;5.60;2.45;;;;;;;3.27;77.83;99905.84;10444806;28;20438;-74
2023/03/27 17:07:14;;;;;;;1.63;1.05;;;;;;;3.34;73.48;99930.09;10446814;28;20111;-76
2023/03/27 17:12:16;;;;;;;1.63;0.55;;;;;;;3.26;68.98;99935.31;10420024;28;20037;-75
2023/03/27 17:17:18;;;;;;;3.78;0.95;;;;;;;3.24;67.74;99952.66;10420738;28;20533;-75
2023/03/27 17:22:20;;;;;;;2.42;0.70;;;;;;;2.79;77.40;99983.03;10421172;28;20045;-76
2023/03/27 17:27:24;;;;;;;1.30;0.70;;;;;;;2.17;85.60;99989.06;10403285;28;20574;-75
2023/03/27 17:32:27;;;;;;;2.55;1.10;;;;;;;2.07;89.73;99993.38;10421600;28;20061;-74
2023/03/27 17:37:30;;;;;;;1.60;1.20;;;;;;;1.92;92.86;99994.22;10419894;28;20053;-75
2023/03/27 17:42:33;;;;;;;1.75;1.02;;;;;;;1.88;94.76;100007.16;10417978;28;20125;-75
2023/03/27 17:47:35;;;;;;;2.55;1.50;;;;;;;1.84;96.44;100037.38;10419042;28;20042;-76
2023/03/27 17:52:36;;;;;;;2.20;1.70;;;;;;;1.66;99.58;100045.09;10419054;28;20048;-75
2023/03/27 17:57:40;;;;;;;2.63;1.98;;;;;;;1.32;100.00;100052.66;10418638;28;20120;-75
2023/03/27 18:02:42;;;;;;;2.08;1.88;;;;;;;1.05;100.00;100047.31;10416980;28;20125;-75
2023/03/27 18:07:44;;;;;;;2.60;2.40;;;;;;;0.95;100.00;100049.84;10436867;28;20049;-74
2023/03/27 18:12:46;;;;;;;2.03;1.85;;;;;;;0.92;100.00;100051.53;10424903;28;20044;-75
2023/03/27 18:17:49;;;;;;;3.08;2.20;;;;;;;1.00;100.00;100047.28;10417098;28;20033;-74
2023/03/27 18:22:51;;;;;;;1.60;1.45;;;;;;;1.10;100.00;100068.91;10415526;28;20560;-75
2023/03/27 18:27:53;;;;;;;3.67;1.58;;;;;;;1.07;100.00;100062.03;10417354;28;20049;-75
2023/03/27 18:32:55;;;;;;;2.60;2.10;;;;;;;1.07;100.00;100059.44;10416652;28;20095;-76
2023/03/27 18:37:57;;;;;;;2.65;1.20;;;;;;;0.89;100.00;100054.13;10416200;28;20056;-76
2023/03/27 18:42:59;;;;;;;1.98;1.58;;;;;;;0.86;100.00;100052.38;10415385;28;20052;-76
2023/03/27 18:48:01;;;;;;;1.70;1.20;;;;;;;0.99;100.00;100054.19;10416171;28;20448;-76
2023/03/27 18:53:03;;;;;;;1.35;0.82;;;;;;;0.94;100.00;100055.03;10439015;28;20441;-75
2023/03/27 18:58:05;;;;;;;1.02;1.02;;;;;;;0.81;100.00;100048.88;10424112;28;20037;-76
2023/03/27 19:03:13;;;;;;;1.65;0.90;;;;;;;0.82;100.00;100044.56;10458268;28;20154;-76
2023/03/27 19:08:16;;;;;;;1.10;0.80;;;;;;;0.81;100.00;100055.78;10440761;28;20475;-75
2023/03/27 19:13:18;;;;;;;1.15;0.82;;;;;;;0.82;100.00;100067.84;10426249;28;20172;-76
2023/03/27 19:18:40;;;;;;;1.55;0.73;;;;;;;0.90;100.00;100058.44;10424807;28;20107;-77
2023/03/27 19:23:48;;;;;;;0.82;0.80;;;;;;;0.84;100.00;100051.50;10423928;28;20045;-75
2023/03/27 19:28:54;;;;;;;1.35;0.90;;;;;;;0.87;100.00;100053.22;10424459;28;20061;-76
2023/03/27 19:33:56;;;;;;;3.17;0.90;;;;;;;0.99;100.00;100061.97;10424240;28;20551;-77
2023/03/27 19:38:58;;;;;;;1.80;1.00;;;;;;;0.92;100.00;100057.56;10422692;28;20044;-77
2023/03/27 19:44:00;;;;;;;2.00;1.00;;;;;;;1.04;100.00;100062.00;10423997;28;20041;-76
2023/03/27 19:49:02;;;;;;;3.03;1.23;;;;;;;1.10;99.01;100056.84;10424405;28;20067;-77
2023/03/27 19:54:34;;;;;;;1.40;1.10;;;;;;;1.19;96.66;100063.81;10391733;28;20045;-77
2023/03/27 19:59:36;;;;;;;2.03;1.02;;;;;;;1.25;95.90;100074.22;10457406;28;20091;-76
2023/03/27 20:04:38;;;;;;;2.30;1.20;;;;;;;1.20;95.45;100069.00;10421731;28;20045;-76
2023/03/27 20:09:39;;;;;;;2.95;1.42;;;;;;;1.16;94.51;100072.44;10435940;28;20044;-76
2023/03/27 20:14:41;;;;;;;2.05;1.40;;;;;;;1.24;93.51;100067.31;10462592;28;20136;-76
2023/03/27 20:19:51;;;;;;;4.25;1.60;;;;;;;1.21;93.34;100067.28;10438860;28;20041;-76
2023/03/27 20:24:54;;;;;;;2.42;1.55;;;;;;;1.22;92.64;100066.44;10425183;28;20502;-77
2023/03/27 20:29:56;;;;;;;2.60;1.17;;;;;;;1.14;92.78;100065.50;10422210;28;20068;-77
2023/03/27 20:34:59;;;;;;;2.20;1.10;;;;;;;1.20;91.94;100074.19;10420863;28;20052;-76
2023/03/27 20:40:10;;;;;;;1.67;1.17;;;;;;;1.11;91.74;100076.72;10421139;28;20045;-76
2023/03/27 20:45:18;;;;;;;1.02;0.80;;;;;;;1.10;90.89;100066.34;10419828;28;20049;-75
2023/03/27 20:50:22;;;;;;;2.10;0.90;;;;;;;1.11;91.43;100071.53;10419692;28;20057;-75
2023/03/27 20:55:24;;;;;;;0.90;0.80;;;;;;;1.27;89.25;100075.94;10420956;28;20051;-75
2023/03/27 21:00:36;;;;;;;1.75;0.80;;;;;;;1.24;89.75;100067.31;10418774;28;20068;-76
2023/03/27 21:05:40;;;;;;;2.28;1.00;;;;;;;1.16;90.61;100072.44;10420113;28;20042;-76
2023/03/27 21:10:41;;;;;;;1.60;1.05;;;;;;;1.41;88.99;100060.50;10419335;28;20053;-76
2023/03/27 21:15:43;;;;;;;2.40;0.77;;;;;;;1.39;89.56;100057.03;10420682;28;20049;-77
2023/03/27 21:20:45;;;;;;;3.85;1.27;;;;;;;1.45;90.32;100062.25;10401240;28;20045;-75
2023/03/27 21:25:49;;;;;;;3.90;1.60;;;;;;;1.47;90.63;100051.91;10418060;28;20049;-76
2023/03/27 21:30:51;;;;;;;5.05;2.00;;;;;;;1.60;91.38;100058.03;10417586;28;20038;-75
2023/03/27 21:35:53;;;;;;;3.08;1.35;;;;;;;1.56;91.21;100057.13;10417136;28;20125;-74
2023/03/27 21:40:55;;;;;;;3.10;1.67;;;;;;;1.52;91.30;100055.38;10417531;28;20042;-75
2023/03/27 21:46:02;;;;;;;2.67;1.77;;;;;;;1.55;91.54;100059.69;10416570;28;20053;-75
2023/03/27 21:51:04;;;;;;;;;;;;;;;1.68;88.89;100053.72;10417041;28;20056;-75
2023/03/27 21:56:07;;;;;;;2.00;1.58;;;;;;;1.61;88.38;100059.75;10417916;28;19967;-74
2023/03/27 22:01:08;;;;;;;1.98;1.20;;;;;;;1.65;87.79;100059.75;10416414;28;20045;-76
2023/03/27 22:06:10;;;;;;;1.25;0.98;;;;;;;1.66;88.02;100060.63;10417135;28;20081;-75
2023/03/27 22:11:14;;;;;;;2.88;1.20;;;;;;;1.69;86.04;100053.75;10415289;28;20052;-76
2023/03/27 22:16:16;;;;;;;2.40;1.20;;;;;;;1.74;86.60;100053.75;10416364;28;20052;-76
2023/03/27 22:21:24;;;;;;;2.08;1.05;;;;;;;1.72;86.74;100047.69;10430795;22;20046;-76
2023/03/27 22:26:29;;;;;;;1.92;1.05;;;;;;;1.64;86.77;100055.44;10417446;28;20490;-76
2023/03/27 22:31:31;;;;;;;1.25;0.88;;;;;;;1.53;87.34;100051.94;10416321;28;20038;-76
2023/03/27 22:36:33;;;;;;;4.78;1.00;;;;;;;1.59;86.62;100056.25;10419087;28;20069;-76
2023/03/27 22:41:35;;;;;;;4.13;0.80;;;;;;;1.56;86.67;100053.69;10417275;28;20045;-76
2023/03/27 22:46:37;;;;;;;3.53;1.10;;;;;;;1.45;87.64;100051.88;10391580;28;20056;-76
2023/03/27 22:51:39;;;;;;;3.03;1.00;;;;;;;1.41;87.93;100054.44;10425456;28;20096;-76
2023/03/27 22:56:40;;;;;;;2.53;1.00;;;;;;;1.48;87.08;100069.19;10426705;28;20425;-75
2023/03/27 23:01:42;;;;;;;3.92;1.25;;;;;;;1.64;86.10;100077.88;10407995;28;20045;-75
2023/03/27 23:06:44;;;;;;;5.57;0.98;;;;;;;1.35;88.20;100078.59;10426406;28;20052;-75
2023/03/27 23:11:46;;;;;;;4.18;0.90;;;;;;;1.44;87.39;100083.81;10423628;28;20498;-76
2023/03/27 23:16:48;;;;;;;3.97;0.88;;;;;;;1.40;88.19;100086.38;10423297;28;20052;-75
2023/03/27 23:21:49;;;;;;;4.93;1.05;;;;;;;1.64;85.82;100083.94;10424481;28;20049;-76
2023/03/27 23:26:51;;;;;;;3.70;0.98;;;;;;;1.53;86.71;100077.84;10424017;28;20048;-76
2023/03/27 23:31:53;;;;;;;1.60;0.77;;;;;;;1.53;87.27;100072.66;10421855;28;20045;-76
2023/03/27 23:36:54;;;;;;;1.67;0.90;;;;;;;1.43;88.15;100076.06;10420868;28;20045;-76
2023/03/27 23:41:56;;;;;;;5.72;1.58;;;;;;;1.50;87.31;100083.84;10425773;28;20042;-76
2023/03/27 23:46:58;;;;;;;2.00;1.02;;;;;;;1.49;87.63;100079.53;10422264;28;20557;-76
2023/03/27 23:51:59;;;;;;;12.85;1.23;;;;;;;1.58;87.20;100080.44;10421975;28;20042;-76
2023/03/27 23:57:02;;;;;;;3.30;1.00;;;;;;;1.55;87.27;100077.84;10419730;28;20045;-76
